KLRU/LRU METAR and TAF weather

Enter ICAO airport designator
Station Type Date Time Source
KLRU METAR 2020/07/14 21:55 UTC NOAA

KLRU 142155Z AUTO 24009G16KT 10SM SCT120 40/04 A3002 RMK AO2 LTG DSNT SW T03990038


Station Type Date Time Source
KLRU Decoded METAR 2020/07/14 21:55 UTC NOAA

Las Cruces, Las Cruces International Airport, NM, United States (KLRU) 32-17-22N 106-55-19W
Jul 14, 2020 - 05:55 PM EDT / 2020.07.14 2155 UTC
Wind: from the WSW (240 degrees) at 10 MPH (9 KT) gusting to 18 MPH (16 KT):0
Visibility: 10 mile(s):0
Sky conditions: partly cloudy
Weather: Lightning observed
Temperature: 103.8 F (39.9 C)
Dew Point: 38.8 F (3.8 C)
Relative Humidity: 10%
Pressure (altimeter): 30.02 in. Hg (1016 hPa)
ob: KLRU 142155Z AUTO 24009G16KT 10SM SCT120 40/04 A3002 RMK AO2 LTG DSNT SW T03990038
cycle: 22

Station Type Date Time Source
KLRU TAF 2020/07/14 18:22 UTC NOAA

TAF KLRU 141720Z 1418/1518 28008KT P6SM SCT150
FM142300 27010G20KT P6SM VCTS BKN100CB BKN200
FM150300 22011KT P6SM BKN100 BKN200
FM150900 VRB05KT P6SM SCT120 SCT250

Example: see airport list